Time;durP1;ratioP1;P1;durP2;ratioP2;P2;SDS_P1;SDS_P2;PMS_P1;PMS_P2;Temp;Humidity;BMP_temperature;BMP_pressure;BME280_temperature;BME280_humidity;BME280_pressure;Samples;Min_cycle;Max_cycle;Signal;HPM_P1;HPM_P2
2021/01/14 00:00:34;;;;;;;6.30;2.70;;;-0.40;85.30;;;;;;4945108;28;20192;-75
2021/01/14 00:03:01;;;;;;;4.40;2.80;;;-0.40;85.40;;;;;;4963940;28;20650;-74
2021/01/14 00:05:26;;;;;;;2.70;2.60;;;-0.40;85.50;;;;;;4965463;28;20243;-75
2021/01/14 00:07:53;;;;;;;3.83;2.47;;;-0.40;85.50;;;;;;4967559;28;20179;-75
2021/01/14 00:10:20;;;;;;;4.70;2.50;;;-0.50;85.50;;;;;;4978421;28;20216;-75
2021/01/14 00:12:46;;;;;;;3.70;2.70;;;-0.50;85.40;;;;;;4973697;28;20611;-75
2021/01/14 00:15:14;;;;;;;3.07;2.23;;;-0.50;85.40;;;;;;4949808;28;20193;-75
2021/01/14 00:17:40;;;;;;;2.13;2.03;;;-0.50;85.40;;;;;;4952461;28;20194;-74
2021/01/14 00:20:10;;;;;;;3.53;2.37;;;-0.50;85.40;;;;;;4969737;28;20330;-74
2021/01/14 00:22:35;;;;;;;2.20;2.10;;;-0.50;85.30;;;;;;4968271;28;20171;-74
2021/01/14 00:25:02;;;;;;;2.53;2.33;;;-0.50;85.00;;;;;;4968692;28;20729;-74
2021/01/14 00:27:27;;;;;;;2.03;1.90;;;-0.50;85.00;;;;;;4967868;28;20198;-74
2021/01/14 00:29:53;;;;;;;5.87;2.73;;;-0.50;85.00;;;;;;4969954;28;20693;-75
2021/01/14 00:32:19;;;;;;;2.30;2.10;;;-0.50;84.80;;;;;;4951194;28;20265;-74
2021/01/14 00:34:44;;;;;;;2.30;1.97;;;-0.50;84.80;;;;;;4972231;28;20281;-75
2021/01/14 00:39:56;;;;;;;3.27;1.80;;;-0.50;84.80;;;;;;4989018;28;20204;-75
2021/01/14 00:42:21;;;;;;;2.83;1.80;;;-0.50;84.70;;;;;;4976190;28;20727;-74
2021/01/14 00:44:48;;;;;;;3.90;2.73;;;-0.60;84.80;;;;;;4969497;28;20179;-75
2021/01/14 00:47:13;;;;;;;5.20;2.33;;;-0.60;84.80;;;;;;4947252;28;20201;-75
2021/01/14 00:49:39;;;;;;;9.60;2.37;;;-0.60;84.70;;;;;;4968991;28;20186;-75
2021/01/14 00:52:05;;;;;;;4.00;1.87;;;-0.60;84.70;;;;;;4968577;28;20606;-75
2021/01/14 00:54:31;;;;;;;2.57;2.37;;;-0.60;84.70;;;;;;4968202;28;20183;-74
2021/01/14 00:56:56;;;;;;;3.23;1.87;;;-0.60;84.50;;;;;;4971904;28;20197;-75
2021/01/14 00:59:22;;;;;;;3.30;2.50;;;-0.60;84.30;;;;;;4976238;28;20224;-75
2021/01/14 01:01:48;;;;;;;2.67;2.47;;;-0.50;84.40;;;;;;4973231;28;20200;-75
2021/01/14 01:04:13;;;;;;;1.60;1.50;;;-0.50;84.20;;;;;;4969451;28;20179;-75
2021/01/14 01:06:42;;;;;;;2.80;1.90;;;-0.60;83.90;;;;;;4967586;28;20226;-75
2021/01/14 01:09:09;;;;;;;2.27;2.07;;;-0.60;83.90;;;;;;4972296;28;20272;-74
2021/01/14 01:11:35;;;;;;;1.93;1.70;;;-0.50;83.80;;;;;;4979364;28;20189;-74
2021/01/14 01:14:00;;;;;;;1.90;1.63;;;-0.50;83.70;;;;;;4979150;28;20637;-74
2021/01/14 01:16:26;;;;;;;1.70;1.60;;;-0.50;83.40;;;;;;4968795;28;20190;-74
2021/01/14 01:18:52;;;;;;;1.20;1.20;;;-0.50;83.30;;;;;;4968686;28;20245;-74
2021/01/14 01:21:18;;;;;;;1.00;1.00;;;-0.50;83.30;;;;;;4968035;28;20193;-74
2021/01/14 01:23:43;;;;;;;1.90;1.80;;;-0.50;83.20;;;;;;4969260;28;20186;-75
2021/01/14 01:26:18;;;;;;;1.37;1.33;;;-0.40;83.10;;;;;;4969073;28;20218;-75
2021/01/14 01:28:45;;;;;;;1.20;1.20;;;-0.40;83.10;;;;;;4973520;28;20678;-75
2021/01/14 01:31:11;;;;;;;1.97;1.87;;;-0.50;82.90;;;;;;4968775;28;20182;-75
2021/01/14 01:33:38;;;;;;;1.67;1.57;;;-0.50;82.90;;;;;;4957244;28;20221;-75
2021/01/14 01:36:04;;;;;;;5.27;2.03;;;-0.50;83.10;;;;;;4949753;28;20222;-75
2021/01/14 01:38:30;;;;;;;3.53;1.50;;;-0.50;83.10;;;;;;4969028;28;20210;-75
2021/01/14 01:40:57;;;;;;;1.60;1.50;;;-0.50;83.30;;;;;;4968950;28;20187;-75
2021/01/14 01:43:24;;;;;;;1.50;1.40;;;-0.50;83.30;;;;;;4957640;28;20206;-75
2021/01/14 01:45:50;;;;;;;1.97;1.73;;;-0.50;83.20;;;;;;4975335;28;20268;-75
2021/01/14 01:48:17;;;;;;;4.37;1.50;;;-0.50;83.30;;;;;;4966054;28;20202;-75
2021/01/14 01:50:48;;;;;;;2.20;1.90;;;-0.50;83.30;;;;;;4983265;28;20186;-75
2021/01/14 01:53:15;;;;;;;1.57;1.57;;;-0.50;83.30;;;;;;4968998;28;20269;-75
2021/01/14 01:55:45;;;;;;;2.67;1.27;;;-0.50;83.30;;;;;;4982680;28;20248;-75
2021/01/14 01:58:11;;;;;;;1.70;1.37;;;-0.50;83.10;;;;;;4967795;28;20596;-75
2021/01/14 02:00:37;;;;;;;1.83;1.73;;;-0.60;82.80;;;;;;4963138;28;20186;-75
2021/01/14 02:03:03;;;;;;;1.53;1.53;;;-0.60;82.90;;;;;;4967935;28;20196;-75
2021/01/14 02:05:29;;;;;;;1.47;1.30;;;-0.70;83.00;;;;;;4966784;28;20186;-75
2021/01/14 02:08:45;;;;;;;1.87;1.30;;;-0.80;83.20;;;;;;4968144;28;20611;-75
2021/01/14 02:11:18;;;;;;;3.53;1.07;;;-0.80;83.40;;;;;;4882035;29;20269;-75
2021/01/14 02:14:14;;;;;;;2.80;1.47;;;-0.90;83.80;;;;;;4888925;29;20667;-75
2021/01/14 02:16:42;;;;;;;1.80;1.70;;;-0.90;83.80;;;;;;4837998;29;20203;-75
2021/01/14 02:19:20;;;;;;;2.07;1.80;;;-0.90;83.90;;;;;;4852056;29;20222;-75
2021/01/14 02:21:48;;;;;;;1.30;1.20;;;-1.00;83.90;;;;;;4840350;29;20281;-75
2021/01/14 02:24:39;;;;;;;1.37;1.27;;;-1.00;84.00;;;;;;4855717;29;20226;-75
2021/01/14 02:27:08;;;;;;;1.10;1.00;;;-1.00;84.00;;;;;;4847391;29;20313;-75
2021/01/14 02:29:38;;;;;;;2.57;1.77;;;-1.00;84.10;;;;;;4863542;29;20202;-75
2021/01/14 02:32:13;;;;;;;1.50;1.40;;;-1.00;84.00;;;;;;4849787;29;20684;-75
2021/01/14 02:34:39;;;;;;;1.60;1.50;;;-1.10;84.00;;;;;;4842667;29;20205;-75
2021/01/14 02:37:05;;;;;;;5.80;1.83;;;-1.10;84.00;;;;;;4852060;29;20194;-75
2021/01/14 02:39:30;;;;;;;2.37;1.17;;;-1.10;84.00;;;;;;4851040;29;20313;-75
2021/01/14 02:41:56;;;;;;;1.93;1.37;;;-1.20;83.90;;;;;;4843593;29;20205;-75
2021/01/14 02:44:22;;;;;;;1.80;1.20;;;-1.20;83.80;;;;;;4853216;29;20205;-74
2021/01/14 02:46:47;;;;;;;3.10;1.27;;;-1.20;83.80;;;;;;4904055;29;20295;-76
2021/01/14 02:49:15;;;;;;;1.40;1.33;;;-1.30;83.80;;;;;;4924726;29;20219;-75
2021/01/14 02:51:52;;;;;;;0.77;0.77;;;-1.20;84.00;;;;;;4912416;29;20199;-75
2021/01/14 02:54:19;;;;;;;1.47;1.00;;;-1.30;83.80;;;;;;4956940;28;20264;-75
2021/01/14 02:56:48;;;;;;;1.47;1.37;;;-1.30;83.70;;;;;;4967769;28;20185;-75
2021/01/14 02:59:13;;;;;;;1.03;1.03;;;-1.30;83.70;;;;;;4949411;28;20686;-75
2021/01/14 03:01:39;;;;;;;4.73;1.47;;;-1.30;83.80;;;;;;4967028;28;20288;-75
2021/01/14 03:04:05;;;;;;;1.27;1.17;;;-1.30;83.90;;;;;;4978472;28;20182;-75
2021/01/14 03:06:31;;;;;;;1.77;1.50;;;-1.30;83.80;;;;;;4978692;28;20190;-75
2021/01/14 03:08:57;;;;;;;1.90;1.57;;;-1.30;83.80;;;;;;4968956;28;20194;-75
2021/01/14 03:11:34;;;;;;;1.67;0.93;;;-1.30;83.90;;;;;;4975746;28;20258;-75
2021/01/14 03:14:00;;;;;;;1.40;1.40;;;-1.30;83.90;;;;;;4966886;28;20178;-75
2021/01/14 03:16:26;;;;;;;1.80;1.27;;;-1.30;84.00;;;;;;4974910;28;20186;-75
2021/01/14 03:18:53;;;;;;;1.07;0.80;;;-1.30;84.00;;;;;;4954424;28;20210;-75
2021/01/14 03:21:23;;;;;;;1.93;1.77;;;-1.30;83.90;;;;;;4976358;28;20192;-75
2021/01/14 03:23:49;;;;;;;2.57;1.90;;;-1.30;84.00;;;;;;4949500;28;20186;-75
2021/01/14 03:26:16;;;;;;;1.20;1.10;;;-1.40;84.10;;;;;;4967618;28;20268;-75
2021/01/14 03:28:42;;;;;;;2.20;1.17;;;-1.40;84.20;;;;;;4967781;28;20213;-76
2021/01/14 03:31:12;;;;;;;2.47;1.50;;;-1.40;84.00;;;;;;4967786;28;20202;-75
2021/01/14 03:33:38;;;;;;;1.47;1.13;;;-1.40;84.00;;;;;;4950338;28;20550;-75
2021/01/14 03:36:05;;;;;;;2.00;1.90;;;-1.40;84.00;;;;;;4943180;29;20729;-75
2021/01/14 03:38:38;;;;;;;1.17;0.90;;;-1.40;84.00;;;;;;4965163;28;20221;-75
2021/01/14 03:41:11;;;;;;;2.10;0.83;;;-1.40;84.20;;;;;;4967770;28;20678;-76
2021/01/14 03:43:37;;;;;;;1.27;1.27;;;-1.40;84.00;;;;;;4959534;28;20309;-75
2021/01/14 03:46:14;;;;;;;1.83;1.73;;;-1.50;84.00;;;;;;4948592;28;20194;-75
2021/01/14 03:48:42;;;;;;;3.00;1.33;;;-1.50;84.30;;;;;;4973608;28;20205;-75
2021/01/14 03:51:22;;;;;;;1.00;0.80;;;-1.50;84.30;;;;;;4970732;28;20715;-75
2021/01/14 03:53:49;;;;;;;1.40;1.30;;;-1.50;84.30;;;;;;4971366;28;20194;-75
2021/01/14 03:56:15;;;;;;;1.00;1.00;;;-1.50;84.20;;;;;;4971641;28;20183;-76
2021/01/14 03:58:42;;;;;;;3.23;0.83;;;-1.50;83.90;;;;;;4958713;28;20297;-75
2021/01/14 04:01:08;;;;;;;1.80;1.53;;;-1.60;83.90;;;;;;4962989;28;20189;-75
2021/01/14 04:03:40;;;;;;;1.00;1.00;;;-1.50;83.80;;;;;;4971119;28;20198;-75
2021/01/14 04:06:06;;;;;;;1.17;1.17;;;-1.50;83.60;;;;;;4972663;28;20179;-75
2021/01/14 04:08:32;;;;;;;1.63;0.93;;;-1.50;83.10;;;;;;4971151;28;20240;-75
2021/01/14 04:10:57;;;;;;;1.60;1.50;;;-1.50;83.10;;;;;;4953190;28;20218;-75
2021/01/14 04:13:23;;;;;;;1.17;1.00;;;-1.50;82.80;;;;;;4970414;28;20186;-76
2021/01/14 04:15:49;;;;;;;0.97;0.97;;;-1.60;82.50;;;;;;4975349;28;20214;-75
2021/01/14 04:18:14;;;;;;;1.10;1.00;;;-1.50;82.60;;;;;;4985412;28;20217;-75
2021/01/14 04:20:40;;;;;;;1.40;1.30;;;-1.50;82.40;;;;;;4988091;28;20190;-75
2021/01/14 04:23:06;;;;;;;1.67;1.57;;;-1.50;82.40;;;;;;4980128;28;20210;-75
2021/01/14 04:25:32;;;;;;;1.23;1.20;;;-1.50;82.20;;;;;;4970962;28;20177;-75
2021/01/14 04:27:59;;;;;;;1.10;1.10;;;-1.60;82.20;;;;;;4970945;28;20194;-75
2021/01/14 04:30:26;;;;;;;8.03;0.93;;;-1.60;82.20;;;;;;4952496;28;20703;-75
2021/01/14 04:32:58;;;;;;;1.77;0.77;;;-1.60;81.90;;;;;;4958874;28;20200;-75
2021/01/14 04:35:25;;;;;;;0.73;0.73;;;-1.60;81.00;;;;;;4960346;28;20181;-76
2021/01/14 04:37:51;;;;;;;0.80;0.80;;;-1.60;80.10;;;;;;4973285;28;20230;-76
2021/01/14 04:40:17;;;;;;;0.90;0.90;;;-1.60;79.90;;;;;;4971177;28;20334;-76
2021/01/14 04:42:50;;;;;;;0.60;0.60;;;-1.60;79.70;;;;;;4978191;28;20456;-75
2021/01/14 04:45:18;;;;;;;0.70;0.70;;;-1.60;79.80;;;;;;4970555;28;20233;-75
2021/01/14 04:47:48;;;;;;;0.60;0.60;;;-1.60;79.60;;;;;;4953029;28;20221;-75
2021/01/14 04:50:16;;;;;;;5.40;1.00;;;-1.60;79.90;;;;;;4970279;28;20973;-76
2021/01/14 04:52:42;;;;;;;0.60;0.60;;;-1.50;79.80;;;;;;4983807;28;20181;-75
2021/01/14 04:55:15;;;;;;;1.93;1.20;;;-1.50;80.00;;;;;;4971014;28;20639;-77
2021/01/14 04:57:45;;;;;;;1.10;0.70;;;-1.50;79.80;;;;;;4975660;28;20648;-75
2021/01/14 05:00:13;;;;;;;0.87;0.87;;;-1.50;79.80;;;;;;4969169;28;20200;-76
2021/01/14 05:03:08;;;;;;;0.90;0.90;;;-1.50;79.10;;;;;;4967389;28;20206;-76
2021/01/14 05:05:38;;;;;;;1.90;0.77;;;-1.50;78.70;;;;;;4923850;29;20196;-76
2021/01/14 05:08:06;;;;;;;1.80;0.60;;;-1.40;79.20;;;;;;4929182;29;20308;-76
2021/01/14 05:10:37;;;;;;;0.70;0.70;;;-1.40;78.70;;;;;;4929390;29;20331;-76
2021/01/14 05:13:03;;;;;;;0.67;0.67;;;-1.40;78.40;;;;;;4929118;29;20187;-76
2021/01/14 05:15:30;;;;;;;0.60;0.60;;;-1.40;78.00;;;;;;4931463;29;20198;-76
2021/01/14 05:17:57;;;;;;;0.30;0.30;;;-1.40;77.90;;;;;;4929107;29;20719;-75
2021/01/14 05:20:24;;;;;;;1.17;0.80;;;-1.40;77.80;;;;;;4928934;29;20233;-75
2021/01/14 05:22:56;;;;;;;0.60;0.60;;;-1.30;78.00;;;;;;4923642;29;20267;-75
2021/01/14 05:25:21;;;;;;;0.93;0.70;;;-1.30;77.60;;;;;;4929741;29;20176;-76
2021/01/14 05:27:47;;;;;;;0.53;0.53;;;-1.30;77.70;;;;;;4913505;29;20206;-75
2021/01/14 05:30:13;;;;;;;1.87;0.97;;;-1.30;77.80;;;;;;4929064;29;20315;-77
2021/01/14 05:32:44;;;;;;;0.80;0.80;;;-1.30;78.20;;;;;;4913421;29;20598;-77
2021/01/14 05:35:12;;;;;;;0.87;0.83;;;-1.40;78.30;;;;;;4936471;29;20885;-76
2021/01/14 05:37:42;;;;;;;2.07;1.10;;;-1.40;78.50;;;;;;4920509;29;20258;-77
2021/01/14 05:40:13;;;;;;;2.63;1.33;;;-1.40;78.30;;;;;;4935205;29;20213;-77
2021/01/14 05:42:39;;;;;;;1.40;0.70;;;-1.40;78.20;;;;;;4937925;28;20214;-78
2021/01/14 05:45:32;;;;;;;2.20;0.87;;;-1.40;77.60;;;;;;4970455;28;20532;-77
2021/01/14 05:48:11;;;;;;;1.20;1.10;;;-1.40;77.90;;;;;;4971081;28;20200;-76
2021/01/14 05:50:45;;;;;;;1.07;1.00;;;-1.40;77.60;;;;;;4952985;28;20182;-76
2021/01/14 05:53:18;;;;;;;1.10;1.10;;;-1.40;77.20;;;;;;4973707;28;20217;-76
2021/01/14 05:55:46;;;;;;;0.90;0.70;;;-1.30;77.20;;;;;;4944264;29;20183;-77
2021/01/14 05:58:24;;;;;;;1.60;1.57;;;-1.40;76.90;;;;;;4951360;28;20183;-76
2021/01/14 06:00:50;;;;;;;1.00;1.00;;;-1.30;76.40;;;;;;4969754;28;20182;-76
2021/01/14 06:03:29;;;;;;;2.00;0.87;;;-1.30;75.70;;;;;;4973653;28;20197;-76
2021/01/14 06:05:57;;;;;;;1.50;1.10;;;-1.30;75.10;;;;;;4964395;28;20181;-76
2021/01/14 06:08:24;;;;;;;0.77;0.77;;;-1.30;75.20;;;;;;4978801;28;20189;-77
2021/01/14 06:10:51;;;;;;;0.50;0.50;;;-1.30;75.30;;;;;;4986939;28;20202;-76
2021/01/14 06:13:17;;;;;;;1.80;1.63;;;-1.20;74.90;;;;;;4963427;28;20250;-77
2021/01/14 06:15:42;;;;;;;1.00;0.87;;;-1.20;74.70;;;;;;4973080;28;20186;-76
2021/01/14 06:18:11;;;;;;;1.43;0.87;;;-1.20;74.10;;;;;;4952934;28;20199;-77
2021/01/14 06:20:56;;;;;;;1.00;1.00;;;-1.20;74.70;;;;;;4949355;29;20213;-76
2021/01/14 06:23:22;;;;;;;5.60;1.20;;;-1.20;74.70;;;;;;4947067;28;20217;-76
2021/01/14 06:25:54;;;;;;;3.03;1.27;;;-1.10;75.00;;;;;;4950452;29;20171;-77
2021/01/14 06:28:21;;;;;;;4.60;2.10;;;-1.00;75.50;;;;;;4953518;28;20199;-78
2021/01/14 06:30:58;;;;;;;4.90;2.77;;;-1.00;76.80;;;;;;4955203;28;20578;-81
2021/01/14 06:33:28;;;;;;;3.80;3.17;;;-0.90;78.30;;;;;;4959247;28;20181;-80
2021/01/14 06:36:03;;;;;;;7.97;4.13;;;-0.90;79.20;;;;;;4951518;28;20186;-77
2021/01/14 06:38:40;;;;;;;4.03;3.50;;;-0.80;80.10;;;;;;4967521;28;21081;-75
2021/01/14 06:41:17;;;;;;;6.33;3.23;;;-0.80;81.20;;;;;;4966557;28;20633;-76
2021/01/14 06:43:44;;;;;;;5.30;4.13;;;-0.70;81.50;;;;;;4947234;28;20264;-78
2021/01/14 06:46:21;;;;;;;5.57;4.17;;;-0.60;81.90;;;;;;4969959;28;20178;-79
2021/01/14 06:48:52;;;;;;;5.70;4.40;;;-0.40;82.00;;;;;;4969285;28;20178;-80
2021/01/14 06:51:23;;;;;;;8.93;4.57;;;-0.10;82.40;;;;;;4967746;28;20200;-75
2021/01/14 06:53:55;;;;;;;5.03;4.63;;;0.20;81.90;;;;;;4966820;28;20677;-78
2021/01/14 06:56:24;;;;;;;7.73;5.37;;;0.60;81.70;;;;;;4965729;28;20178;-80
2021/01/14 06:58:51;;;;;;;7.37;4.60;;;0.90;80.90;;;;;;4960406;28;20230;-75
2021/01/14 07:01:18;;;;;;;7.97;4.37;;;1.30;79.90;;;;;;4959679;28;20175;-76
2021/01/14 07:04:03;;;;;;;5.53;4.27;;;1.60;79.70;;;;;;4967614;28;20190;-77
2021/01/14 07:06:37;;;;;;;10.77;5.20;;;1.90;78.50;;;;;;4957755;28;21666;-77
2021/01/14 07:09:13;;;;;;;14.60;7.57;;;2.10;77.30;;;;;;4964112;28;20183;-78
2021/01/14 07:11:49;;;;;;;11.20;6.97;;;2.20;77.10;;;;;;4950454;28;20178;-76
2021/01/14 07:14:22;;;;;;;14.27;7.63;;;2.40;76.70;;;;;;4961093;28;20272;-76
2021/01/14 07:16:59;;;;;;;9.87;6.77;;;2.50;76.00;;;;;;4968143;28;20186;-83
2021/01/14 07:22:30;;;;;;;14.57;7.20;;;3.00;76.00;;;;;;4931922;29;20306;-79
2021/01/14 07:25:01;;;;;;;16.93;8.47;;;3.40;75.70;;;;;;4939781;29;20224;-80
2021/01/14 07:27:27;;;;;;;8.43;6.17;;;3.60;74.30;;;;;;4942452;29;20210;-78
2021/01/14 07:29:56;;;;;;;12.23;6.47;;;3.80;72.30;;;;;;4930372;29;20191;-74
2021/01/14 07:32:52;;;;;;;5.87;4.57;;;4.10;72.40;;;;;;4909748;29;20203;-75
2021/01/14 07:35:48;;;;;;;7.87;5.93;;;4.50;69.00;;;;;;4926324;29;21009;-73
2021/01/14 07:38:16;;;;;;;8.57;6.53;;;4.90;70.30;;;;;;4928904;29;21033;-74
2021/01/14 07:40:44;;;;;;;11.20;8.07;;;5.40;70.50;;;;;;4929386;29;20282;-74
2021/01/14 07:43:12;;;;;;;8.00;4.73;;;5.30;69.50;;;;;;4928368;29;20184;-75
2021/01/14 07:45:38;;;;;;;4.10;3.40;;;5.00;66.10;;;;;;4928638;29;20204;-74
2021/01/14 07:48:17;;;;;;;3.77;3.23;;;4.90;67.00;;;;;;4928549;29;20694;-75
2021/01/14 07:50:58;;;;;;;5.30;3.97;;;5.10;66.00;;;;;;4928435;29;20195;-74
2021/01/14 07:53:26;;;;;;;1.87;1.77;;;5.30;66.80;;;;;;4929745;29;20199;-76
2021/01/14 07:55:53;;;;;;;1.10;1.00;;;5.70;62.90;;;;;;4928449;29;20665;-75
2021/01/14 07:58:21;;;;;;;1.17;0.80;;;6.00;61.00;;;;;;4938868;28;20590;-75
2021/01/14 08:01:03;;;;;;;0.40;0.40;;;6.10;58.80;;;;;;4969567;28;20186;-75
2021/01/14 08:03:34;;;;;;;0.37;0.37;;;5.90;56.80;;;;;;4969325;28;20186;-74
2021/01/14 08:06:18;;;;;;;2.00;0.33;;;5.40;56.00;;;;;;4969437;28;20174;-74
2021/01/14 08:08:57;;;;;;;4.00;0.60;;;5.10;57.30;;;;;;4966638;28;20273;-74
2021/01/14 08:11:25;;;;;;;5.07;3.07;;;4.70;57.20;;;;;;4968731;28;20186;-74
2021/01/14 08:14:22;;;;;;;6.50;5.87;;;4.60;63.20;;;;;;4969507;28;20202;-74
2021/01/14 08:16:55;;;;;;;9.03;5.70;;;4.50;66.40;;;;;;4969220;28;20224;-74
2021/01/14 08:19:35;;;;;;;9.47;6.67;;;4.40;68.10;;;;;;4960984;28;20209;-75
2021/01/14 08:22:01;;;;;;;12.17;7.27;;;4.50;69.10;;;;;;4968686;28;20202;-74
2021/01/14 08:24:38;;;;;;;11.57;7.37;;;4.50;68.80;;;;;;4968764;28;20569;-74
2021/01/14 08:27:22;;;;;;;12.27;7.30;;;4.50;69.00;;;;;;4963132;28;20178;-74
2021/01/14 08:29:59;;;;;;;8.20;6.23;;;4.50;69.10;;;;;;4957134;28;20220;-74
2021/01/14 08:32:35;;;;;;;8.67;5.80;;;4.50;69.10;;;;;;4951265;28;20347;-74
2021/01/14 08:35:17;;;;;;;8.87;5.47;;;4.50;68.80;;;;;;4968613;28;20197;-75
2021/01/14 08:37:56;;;;;;;7.63;5.50;;;4.30;68.90;;;;;;4968698;28;20357;-74
2021/01/14 08:40:36;;;;;;;11.17;6.20;;;4.10;69.90;;;;;;4968425;28;20201;-74
2021/01/14 08:43:12;;;;;;;17.70;7.50;;;4.40;70.80;;;;;;4967193;28;20178;-74
2021/01/14 08:45:56;;;;;;;9.63;6.70;;;5.00;69.50;;;;;;4968632;28;20214;-73
2021/01/14 08:48:29;;;;;;;10.93;7.37;;;5.70;69.10;;;;;;4968328;28;20171;-73
2021/01/14 08:50:55;;;;;;;19.00;9.67;;;6.70;68.40;;;;;;4968349;28;20186;-73
2021/01/14 08:53:34;;;;;;;16.57;10.60;;;7.50;65.60;;;;;;4966731;28;20182;-73
2021/01/14 08:56:05;;;;;;;19.53;11.07;;;8.30;64.70;;;;;;4968015;28;20217;-73
2021/01/14 08:58:45;;;;;;;22.03;11.33;;;9.10;63.30;;;;;;4961203;28;20369;-74
2021/01/14 09:01:19;;;;;;;15.47;10.63;;;9.90;63.20;;;;;;4968429;28;20174;-72
2021/01/14 09:03:47;;;;;;;21.07;11.63;;;10.60;61.60;;;;;;4968082;28;20193;-71
2021/01/14 09:06:13;;;;;;;20.05;11.45;;;10.50;59.60;;;;;;4968028;28;20182;-73
2021/01/14 09:08:39;;;;;;;17.67;10.88;;;10.50;59.40;;;;;;4966861;28;20643;-72
2021/01/14 09:11:05;;;;;;;17.63;11.35;;;10.50;58.60;;;;;;4968035;28;20189;-73
2021/01/14 09:13:32;;;;;;;21.05;11.05;;;10.70;60.10;;;;;;4950534;28;20193;-71
2021/01/14 09:16:10;;;;;;;18.85;10.65;;;11.20;59.00;;;;;;4968103;28;20194;-72
2021/01/14 09:18:38;;;;;;;16.42;9.93;;;12.00;58.80;;;;;;4966408;28;20237;-74
2021/01/14 09:21:04;;;;;;;13.82;9.60;;;12.50;57.00;;;;;;4967719;28;20178;-74
2021/01/14 09:23:34;;;;;;;16.67;9.82;;;13.10;55.80;;;;;;4967728;28;20220;-73
2021/01/14 09:26:20;;;;;;;15.32;9.50;;;13.70;56.60;;;;;;4972737;28;20248;-73
2021/01/14 09:28:53;;;;;;;13.07;9.20;;;14.30;54.90;;;;;;4984231;28;20201;-73
2021/01/14 09:31:22;;;;;;;13.45;9.68;;;14.80;54.50;;;;;;4978399;28;20937;-73
2021/01/14 09:33:49;;;;;;;10.25;9.18;;;14.90;53.00;;;;;;4978947;28;20196;-72
2021/01/14 09:36:20;;;;;;;17.27;9.50;;;14.90;52.40;;;;;;4969539;28;20186;-72
2021/01/14 09:38:47;;;;;;;17.25;9.48;;;14.60;51.10;;;;;;4987410;28;20207;-72
2021/01/14 09:41:24;;;;;;;12.63;8.82;;;14.70;53.00;;;;;;4970608;28;20182;-72
2021/01/14 09:43:52;;;;;;;11.80;8.57;;;14.70;51.50;;;;;;4966318;28;20258;-73
2021/01/14 09:46:20;;;;;;;11.27;9.02;;;14.60;52.00;;;;;;4967443;28;20687;-72
2021/01/14 09:48:46;;;;;;;14.50;8.10;;;14.60;51.60;;;;;;4958443;28;20652;-72
2021/01/14 09:51:13;;;;;;;9.73;7.63;;;14.70;52.20;;;;;;4958428;28;20397;-72
2021/01/14 09:53:43;;;;;;;8.70;7.10;;;14.80;51.30;;;;;;4970943;28;20265;-72
2021/01/14 09:56:20;;;;;;;9.43;7.47;;;14.80;51.90;;;;;;4959366;28;20229;-72
2021/01/14 09:58:51;;;;;;;8.35;6.45;;;14.80;51.30;;;;;;4958427;28;20629;-72
2021/01/14 10:01:19;;;;;;;15.77;7.38;;;14.90;51.70;;;;;;4955873;28;20163;-72
2021/01/14 10:03:58;;;;;;;8.90;6.97;;;15.10;51.90;;;;;;4971401;28;20183;-73
2021/01/14 10:06:26;;;;;;;11.68;7.85;;;15.30;50.60;;;;;;4963393;28;20171;-72
2021/01/14 10:08:52;;;;;;;13.00;8.13;;;15.50;50.40;;;;;;4956613;28;20237;-72
2021/01/14 10:11:20;;;;;;;11.80;7.80;;;15.50;50.90;;;;;;4960276;28;20264;-73
2021/01/14 10:13:50;;;;;;;9.90;7.43;;;15.10;49.80;;;;;;4958350;28;20221;-72
2021/01/14 10:16:19;;;;;;;9.05;7.35;;;14.70;49.30;;;;;;4957465;28;20175;-72
2021/01/14 10:18:44;;;;;;;14.13;7.65;;;14.20;49.90;;;;;;4956057;28;20576;-72
2021/01/14 10:21:13;;;;;;;9.45;6.95;;;13.60;51.60;;;;;;4960366;28;20178;-73
2021/01/14 10:23:39;;;;;;;12.15;7.55;;;13.00;52.00;;;;;;4961326;28;20186;-72
2021/01/14 10:26:05;;;;;;;10.57;7.22;;;12.40;53.70;;;;;;4949316;28;20186;-72
2021/01/14 10:28:44;;;;;;;7.80;6.43;;;11.90;52.50;;;;;;4946821;28;20650;-72
2021/01/14 10:31:09;;;;;;;11.13;7.68;;;11.30;53.30;;;;;;4938967;28;20197;-73
2021/01/14 10:33:35;;;;;;;10.23;7.80;;;10.80;54.40;;;;;;4958089;28;20207;-73
2021/01/14 10:36:01;;;;;;;18.23;8.23;;;10.20;55.00;;;;;;4956695;28;20663;-74
2021/01/14 10:38:26;;;;;;;9.15;8.00;;;9.80;55.70;;;;;;4956142;28;20290;-72
2021/01/14 10:40:54;;;;;;;10.43;8.05;;;9.40;56.20;;;;;;4950769;28;20179;-72
2021/01/14 10:43:34;;;;;;;14.55;8.88;;;9.00;55.70;;;;;;4960375;28;21036;-71
2021/01/14 10:46:01;;;;;;;15.35;8.90;;;8.60;57.10;;;;;;4955587;28;20214;-75
2021/01/14 10:48:39;;;;;;;16.58;8.43;;;8.10;56.50;;;;;;4971704;28;20183;-73
2021/01/14 10:51:05;;;;;;;11.82;8.70;;;7.70;58.60;;;;;;4962314;28;20261;-74
2021/01/14 10:53:41;;;;;;;12.80;8.10;;;7.40;58.70;;;;;;4966863;28;20618;-75
2021/01/14 10:56:17;;;;;;;9.80;6.95;;;7.10;58.80;;;;;;4963785;28;20249;-74
2021/01/14 10:58:43;;;;;;;12.30;7.70;;;6.80;60.20;;;;;;4971984;28;20686;-74
2021/01/14 11:01:15;;;;;;;10.77;7.68;;;6.70;60.00;;;;;;4964542;28;20214;-73
2021/01/14 11:03:41;;;;;;;10.77;7.93;;;6.60;60.80;;;;;;4968668;28;20204;-74
2021/01/14 11:06:07;;;;;;;16.47;8.40;;;6.50;60.80;;;;;;4966723;28;20186;-73
2021/01/14 11:08:41;;;;;;;10.43;6.93;;;6.40;61.00;;;;;;4966555;28;20188;-73
2021/01/14 11:11:08;;;;;;;14.57;7.77;;;6.30;61.50;;;;;;4968780;28;20186;-75
2021/01/14 11:13:38;;;;;;;11.80;7.43;;;6.20;61.60;;;;;;4981651;28;20198;-75
2021/01/14 11:16:05;;;;;;;13.20;7.10;;;6.00;62.00;;;;;;4950352;28;20245;-74
2021/01/14 11:18:31;;;;;;;12.23;6.93;;;5.90;62.10;;;;;;4978680;28;20186;-73
2021/01/14 11:20:56;;;;;;;8.03;5.30;;;5.80;62.60;;;;;;4986053;28;20178;-75
2021/01/14 11:23:22;;;;;;;11.33;6.00;;;5.70;62.60;;;;;;4966051;28;20183;-72
2021/01/14 11:25:48;;;;;;;5.57;4.63;;;5.60;62.20;;;;;;4965485;28;20205;-73
2021/01/14 11:28:13;;;;;;;2.40;2.30;;;5.40;62.30;;;;;;4964621;28;20193;-73
2021/01/14 11:30:39;;;;;;;2.87;1.67;;;4.90;59.10;;;;;;4966223;28;20194;-72
2021/01/14 11:33:04;;;;;;;3.13;2.53;;;4.50;59.70;;;;;;4959910;28;20747;-75
2021/01/14 11:35:30;;;;;;;3.93;2.90;;;4.20;60.30;;;;;;4966740;28;20190;-75
2021/01/14 11:37:56;;;;;;;4.57;3.47;;;4.00;61.40;;;;;;4965452;28;20186;-74
2021/01/14 11:40:21;;;;;;;3.67;3.33;;;3.90;62.70;;;;;;4967183;28;20210;-76
2021/01/14 11:42:47;;;;;;;5.50;4.07;;;3.90;63.30;;;;;;4965449;28;20277;-75
2021/01/14 11:45:13;;;;;;;6.23;3.97;;;4.00;64.20;;;;;;4978129;28;20197;-77
2021/01/14 11:47:38;;;;;;;8.13;3.90;;;4.10;64.30;;;;;;4967252;28;20187;-76
2021/01/14 11:50:05;;;;;;;5.37;3.83;;;4.10;64.40;;;;;;4967660;28;20685;-77
2021/01/14 11:52:30;;;;;;;5.50;3.07;;;4.20;64.40;;;;;;4963091;28;20198;-74
2021/01/14 11:54:56;;;;;;;2.63;2.20;;;4.20;63.40;;;;;;4965337;28;20190;-74
2021/01/14 11:57:27;;;;;;;1.53;1.43;;;4.20;62.90;;;;;;4965889;28;20194;-74
2021/01/14 11:59:53;;;;;;;2.57;1.87;;;4.20;62.70;;;;;;4965147;28;20257;-74
2021/01/14 12:02:19;;;;;;;1.97;1.83;;;4.20;63.50;;;;;;4968511;28;20221;-78
2021/01/14 12:04:45;;;;;;;4.07;1.73;;;4.20;63.80;;;;;;4968595;28;20721;-76
2021/01/14 12:07:11;;;;;;;4.73;1.90;;;4.30;63.30;;;;;;4968052;28;20310;-76
2021/01/14 12:09:36;;;;;;;2.30;2.07;;;4.30;63.70;;;;;;4951162;28;20202;-75
2021/01/14 12:12:02;;;;;;;3.70;2.50;;;4.40;64.10;;;;;;4969865;28;20976;-77
2021/01/14 12:14:28;;;;;;;3.27;2.23;;;4.50;64.00;;;;;;4969971;28;20193;-76
2021/01/14 12:16:53;;;;;;;5.70;2.50;;;4.50;63.30;;;;;;4967836;28;20186;-76
2021/01/14 12:19:19;;;;;;;2.97;1.77;;;4.50;63.80;;;;;;4966458;28;20928;-76
2021/01/14 12:21:45;;;;;;;5.30;2.40;;;4.60;64.00;;;;;;4966568;28;20225;-77
2021/01/14 12:24:11;;;;;;;2.47;1.67;;;4.60;63.20;;;;;;4949657;28;20955;-76
2021/01/14 12:26:36;;;;;;;1.20;1.10;;;4.60;63.40;;;;;;4967377;28;20174;-76
2021/01/14 12:29:03;;;;;;;4.73;1.50;;;4.60;63.30;;;;;;4968053;28;20293;-77
2021/01/14 12:31:34;;;;;;;2.17;1.20;;;4.60;63.50;;;;;;4956017;28;20194;-77
2021/01/14 12:34:00;;;;;;;3.13;1.50;;;4.60;62.90;;;;;;4971294;28;20174;-76
2021/01/14 12:36:25;;;;;;;1.40;1.30;;;4.60;62.90;;;;;;4970278;28;20290;-75
2021/01/14 12:38:51;;;;;;;2.47;1.73;;;4.60;63.00;;;;;;4968804;28;20202;-75
2021/01/14 12:41:16;;;;;;;1.73;1.63;;;4.60;63.20;;;;;;4969744;28;20229;-81
2021/01/14 12:43:42;;;;;;;1.83;1.53;;;4.50;63.50;;;;;;4970787;28;20190;-77
2021/01/14 12:46:08;;;;;;;5.30;2.00;;;4.50;64.30;;;;;;4954215;28;20186;-78
2021/01/14 12:48:35;;;;;;;2.93;1.27;;;4.50;64.90;;;;;;4954112;28;20182;-76
2021/01/14 12:51:01;;;;;;;3.43;1.83;;;4.40;65.00;;;;;;4970190;28;20609;-75
2021/01/14 12:53:26;;;;;;;1.60;1.30;;;4.40;65.20;;;;;;4959976;28;20180;-78
2021/01/14 12:55:52;;;;;;;1.63;1.53;;;4.40;64.90;;;;;;4971282;28;20190;-77
2021/01/14 12:58:18;;;;;;;2.67;1.50;;;4.40;64.40;;;;;;4971682;28;20174;-78
2021/01/14 13:00:45;;;;;;;2.87;1.63;;;4.40;64.00;;;;;;4971602;28;20683;-78
2021/01/14 13:03:11;;;;;;;2.40;2.20;;;4.40;63.60;;;;;;4971829;28;20194;-78
2021/01/14 13:05:37;;;;;;;8.03;2.33;;;4.40;64.80;;;;;;4960641;28;20187;-75